Time;durP1;ratioP1;P1;durP2;ratioP2;P2;SDS_P1;SDS_P2;PMS_P1;PMS_P2;Temp;Humidity;BMP_temperature;BMP_pressure;BME280_temperature;BME280_humidity;BME280_pressure;Samples;Min_cycle;Max_cycle;Signal;HPM_P1;HPM_P2
2022/06/02 00:00:09;;;;;;;24.30;22.23;;;7.30;99.90;;;;;;5053999;28;20450;-67
2022/06/02 00:02:47;;;;;;;25.73;23.47;;;7.40;99.90;;;;;;5052998;28;20973;-66
2022/06/02 00:05:21;;;;;;;24.13;22.00;;;7.50;99.90;;;;;;5056683;28;20482;-66
2022/06/02 00:08:02;;;;;;;25.07;23.10;;;7.50;99.90;;;;;;5059465;28;20463;-67
2022/06/02 00:10:40;;;;;;;25.47;22.57;;;7.40;99.90;;;;;;5058513;28;20460;-66
2022/06/02 00:13:20;;;;;;;23.87;21.97;;;7.40;99.90;;;;;;5055432;28;20470;-67
2022/06/02 00:15:53;;;;;;;24.53;22.40;;;7.30;99.90;;;;;;5062557;28;20640;-66
2022/06/02 00:18:27;;;;;;;26.40;24.40;;;7.20;99.90;;;;;;5054179;28;20542;-67
2022/06/02 00:21:00;;;;;;;23.33;21.57;;;7.20;99.90;;;;;;5059860;28;20463;-66
2022/06/02 00:23:46;;;;;;;22.57;20.97;;;7.10;99.90;;;;;;5055445;28;20465;-67
2022/06/02 00:26:31;;;;;;;23.20;21.60;;;7.00;99.90;;;;;;5062245;28;20496;-66
2022/06/02 00:29:14;;;;;;;25.70;23.37;;;7.00;99.90;;;;;;5054995;28;20458;-66
2022/06/02 00:31:49;;;;;;;23.93;22.13;;;6.80;99.90;;;;;;5059946;28;20458;-67
2022/06/02 00:34:25;;;;;;;22.67;20.90;;;6.70;99.90;;;;;;5060401;28;20465;-66
2022/06/02 00:37:05;;;;;;;22.43;20.90;;;6.60;99.90;;;;;;5053390;28;20485;-66
2022/06/02 00:39:34;;;;;;;22.50;21.00;;;6.50;99.90;;;;;;5060391;28;20481;-66
2022/06/02 00:42:09;;;;;;;24.03;22.23;;;6.40;99.90;;;;;;5055924;28;20466;-66
2022/06/02 00:44:41;;;;;;;24.93;23.07;;;6.50;99.90;;;;;;5060420;28;20453;-66
2022/06/02 00:47:28;;;;;;;25.67;23.30;;;6.40;99.90;;;;;;5057272;28;20463;-66
2022/06/02 00:50:03;;;;;;;25.43;23.47;;;6.40;99.90;;;;;;5057148;28;20459;-67
2022/06/02 00:52:33;;;;;;;25.97;23.80;;;6.40;99.90;;;;;;5059391;28;20826;-66
2022/06/02 00:58:15;;;;;;;23.50;21.80;;;6.40;99.90;;;;;;5050305;28;20971;-67
2022/06/02 01:00:44;;;;;;;23.67;21.70;;;6.30;99.90;;;;;;5053593;28;20474;-66
2022/06/02 01:03:14;;;;;;;23.00;21.17;;;6.20;99.90;;;;;;5059659;28;20518;-67
2022/06/02 01:06:03;;;;;;;23.27;21.53;;;6.20;99.90;;;;;;5056079;28;20492;-66
2022/06/02 01:08:50;;;;;;;24.77;22.67;;;6.10;99.90;;;;;;5056663;28;20598;-66
2022/06/02 01:11:25;;;;;;;23.00;21.20;;;6.00;99.90;;;;;;5054671;28;20563;-67
2022/06/02 01:14:21;;;;;;;25.00;22.90;;;6.10;99.90;;;;;;5058347;28;20989;-66
2022/06/02 01:16:53;;;;;;;23.70;21.73;;;6.10;99.90;;;;;;5053673;28;21021;-66
2022/06/02 01:19:46;;;;;;;24.73;22.23;;;6.00;99.90;;;;;;5057834;28;20462;-67
2022/06/02 01:22:37;;;;;;;25.60;23.30;;;6.00;99.90;;;;;;5055304;28;20468;-65
2022/06/02 01:25:26;;;;;;;23.77;21.87;;;5.90;99.90;;;;;;5058784;28;20821;-66
2022/06/02 01:28:28;;;;;;;26.10;23.53;;;6.00;99.90;;;;;;5049803;28;20468;-66
2022/06/02 01:31:01;;;;;;;27.60;25.27;;;5.90;99.90;;;;;;5047944;28;20589;-66
2022/06/02 01:33:37;;;;;;;23.27;21.43;;;6.00;99.90;;;;;;5060077;28;20472;-66
2022/06/02 01:36:15;;;;;;;27.57;24.23;;;6.10;99.90;;;;;;5063033;28;20496;-66
2022/06/02 01:38:53;;;;;;;27.57;25.10;;;6.00;99.90;;;;;;5055881;28;20459;-67
2022/06/02 01:41:28;;;;;;;27.07;24.73;;;6.10;99.90;;;;;;5056568;28;20834;-67
2022/06/02 01:44:03;;;;;;;26.37;24.00;;;6.20;99.90;;;;;;5059981;28;20504;-67
2022/06/02 01:46:44;;;;;;;24.77;22.67;;;6.30;99.90;;;;;;5056880;28;20470;-66
2022/06/02 01:49:31;;;;;;;28.53;25.93;;;6.20;99.90;;;;;;5053007;28;20987;-66
2022/06/02 01:52:11;;;;;;;27.63;24.80;;;6.10;99.90;;;;;;5060753;28;20484;-66
2022/06/02 01:54:51;;;;;;;27.07;24.90;;;6.10;99.90;;;;;;5056780;28;20857;-66
2022/06/02 01:57:35;;;;;;;27.33;24.83;;;6.10;99.90;;;;;;5061776;28;20479;-67
2022/06/02 02:00:08;;;;;;;25.60;23.60;;;6.00;99.90;;;;;;5055773;28;20966;-66
2022/06/02 02:02:46;;;;;;;28.10;25.80;;;5.80;99.90;;;;;;5051542;28;20517;-66
2022/06/02 02:05:27;;;;;;;27.63;25.03;;;5.70;99.90;;;;;;5057419;28;20489;-67
2022/06/02 02:08:10;;;;;;;31.20;28.00;;;5.70;99.90;;;;;;5054542;28;20467;-67
2022/06/02 02:10:44;;;;;;;29.17;26.37;;;5.80;99.90;;;;;;5053541;28;20536;-67
2022/06/02 02:13:22;;;;;;;31.00;28.00;;;5.90;99.90;;;;;;5057408;28;20462;-66
2022/06/02 02:15:57;;;;;;;32.80;29.27;;;6.00;99.90;;;;;;5054206;28;20545;-67
2022/06/02 02:18:42;;;;;;;28.97;26.47;;;6.10;99.90;;;;;;5054714;28;20466;-66
2022/06/02 02:21:25;;;;;;;31.23;28.40;;;6.10;99.90;;;;;;5055037;28;20460;-66
2022/06/02 02:24:03;;;;;;;32.13;28.90;;;6.00;99.90;;;;;;5055419;28;20832;-66
2022/06/02 02:26:36;;;;;;;30.73;27.73;;;6.00;99.90;;;;;;5058248;28;20468;-66
2022/06/02 02:29:10;;;;;;;32.93;29.47;;;6.10;99.90;;;;;;5057599;28;20567;-67
2022/06/02 02:31:48;;;;;;;32.17;29.27;;;6.10;99.90;;;;;;5053879;28;20460;-66
2022/06/02 02:34:30;;;;;;;29.87;27.03;;;6.10;99.90;;;;;;5054624;28;20957;-66
2022/06/02 02:37:04;;;;;;;27.43;24.83;;;6.00;99.90;;;;;;5057135;28;20494;-65
2022/06/02 02:39:39;;;;;;;26.63;24.43;;;5.90;99.90;;;;;;5055808;28;20543;-65
2022/06/02 02:42:12;;;;;;;28.53;26.07;;;5.70;99.90;;;;;;5058083;28;20472;-66
2022/06/02 02:44:46;;;;;;;28.80;26.20;;;5.60;99.90;;;;;;5052579;28;20457;-66
2022/06/02 02:47:20;;;;;;;30.30;27.50;;;5.60;99.90;;;;;;5048990;28;20543;-66
2022/06/02 02:49:52;;;;;;;32.10;29.00;;;5.70;99.90;;;;;;5062906;28;20537;-67
2022/06/02 02:52:26;;;;;;;27.10;24.60;;;5.80;99.90;;;;;;5055011;28;20469;-67
2022/06/02 02:55:00;;;;;;;29.27;26.47;;;5.70;99.90;;;;;;5056131;28;20461;-66
2022/06/02 02:57:36;;;;;;;28.50;26.07;;;5.70;99.90;;;;;;5051644;28;20962;-66
2022/06/02 03:00:08;;;;;;;30.03;27.43;;;5.60;99.90;;;;;;5054331;28;20474;-67
2022/06/02 03:02:41;;;;;;;29.87;26.87;;;5.60;99.90;;;;;;5051697;28;20467;-66
2022/06/02 03:05:17;;;;;;;28.70;26.30;;;5.60;99.90;;;;;;5055549;28;20498;-67
2022/06/02 03:07:43;;;;;;;33.20;30.00;;;5.60;99.90;;;;;;5058892;28;20459;-67
2022/06/02 03:10:17;;;;;;;31.27;28.17;;;5.80;99.90;;;;;;5059701;28;20467;-67
2022/06/02 03:13:24;;;;;;;29.43;26.67;;;5.90;99.90;;;;;;5054797;28;21314;-68
2022/06/02 03:15:55;;;;;;;29.27;26.53;;;5.80;99.90;;;;;;5056332;28;20454;-66
2022/06/02 03:18:35;;;;;;;32.93;29.77;;;5.70;99.90;;;;;;5054205;28;20468;-67
2022/06/02 03:21:15;;;;;;;33.50;29.87;;;5.70;99.90;;;;;;5059469;28;20470;-67
2022/06/02 03:24:10;;;;;;;31.67;28.70;;;5.80;99.90;;;;;;5049827;28;20468;-67
2022/06/02 03:26:50;;;;;;;29.53;26.67;;;5.90;99.90;;;;;;5058334;28;20458;-68
2022/06/02 03:29:28;;;;;;;32.30;29.13;;;6.00;99.90;;;;;;5053166;28;20523;-68
2022/06/02 03:32:11;;;;;;;31.43;28.57;;;6.00;99.90;;;;;;5047960;28;20461;-68
2022/06/02 03:34:46;;;;;;;28.63;25.70;;;5.90;99.90;;;;;;5060181;28;20466;-66
2022/06/02 03:37:32;;;;;;;28.30;25.80;;;5.80;99.90;;;;;;5054569;28;20839;-66
2022/06/02 03:40:17;;;;;;;30.40;27.20;;;5.70;99.90;;;;;;5054085;28;20464;-67
2022/06/02 03:42:50;;;;;;;28.43;26.03;;;5.60;99.90;;;;;;5057625;28;20472;-67
2022/06/02 03:45:29;;;;;;;28.47;26.00;;;5.60;99.90;;;;;;5059988;28;20532;-66
2022/06/02 03:48:08;;;;;;;28.63;26.00;;;5.60;99.90;;;;;;5059696;28;20474;-66
2022/06/02 03:50:58;;;;;;;28.87;26.37;;;5.60;99.90;;;;;;5056761;28;20465;-67
2022/06/02 03:54:02;;;;;;;29.10;26.50;;;5.60;99.90;;;;;;5056822;28;20470;-67
2022/06/02 03:56:47;;;;;;;30.10;27.30;;;5.50;99.90;;;;;;5016613;28;20494;-67
2022/06/02 03:59:30;;;;;;;28.80;26.10;;;5.60;99.90;;;;;;5057390;28;20872;-66
2022/06/02 04:02:01;;;;;;;28.50;26.20;;;5.60;99.90;;;;;;5037218;28;20449;-67
2022/06/02 04:04:39;;;;;;;29.47;26.87;;;5.50;99.90;;;;;;5039870;28;21265;-67
2022/06/02 04:07:18;;;;;;;32.20;29.17;;;5.50;99.90;;;;;;5052412;28;20550;-67
2022/06/02 04:09:52;;;;;;;33.60;30.57;;;5.50;99.90;;;;;;5053549;28;20457;-67
2022/06/02 04:15:55;;;;;;;35.50;31.93;;;5.70;99.90;;;;;;5053726;28;20541;-68
2022/06/02 04:18:31;;;;;;;35.50;32.13;;;5.90;99.90;;;;;;5053672;28;20497;-67
2022/06/02 04:21:10;;;;;;;32.73;29.83;;;5.90;99.90;;;;;;5053642;28;20545;-67
2022/06/02 04:23:54;;;;;;;35.47;31.93;;;5.90;99.90;;;;;;5049469;28;20460;-67
2022/06/02 04:26:32;;;;;;;35.20;31.77;;;6.00;99.90;;;;;;5052440;28;20864;-67
2022/06/02 04:29:12;;;;;;;38.60;34.60;;;6.00;99.90;;;;;;5051714;28;21523;-68
2022/06/02 04:31:52;;;;;;;37.70;33.90;;;6.20;99.90;;;;;;5052246;28;20784;-68
2022/06/02 04:34:27;;;;;;;36.53;33.03;;;6.40;99.90;;;;;;5052396;28;20471;-67
2022/06/02 04:37:06;;;;;;;35.67;32.10;;;6.60;99.90;;;;;;5051925;28;20483;-66
2022/06/02 04:39:44;;;;;;;36.23;31.70;;;6.70;99.90;;;;;;5052924;28;20459;-68
2022/06/02 04:42:23;;;;;;;32.60;29.50;;;6.80;99.90;;;;;;5052558;28;20472;-67
2022/06/02 04:45:00;;;;;;;38.60;34.40;;;6.80;99.90;;;;;;5051624;28;20504;-67
2022/06/02 04:47:37;;;;;;;37.27;33.40;;;7.00;99.90;;;;;;5074463;28;20581;-68
2022/06/02 04:50:11;;;;;;;37.33;33.17;;;7.10;99.90;;;;;;5081915;28;20478;-68
2022/06/02 04:52:47;;;;;;;33.87;30.43;;;7.10;99.90;;;;;;5061837;28;20784;-68
2022/06/02 04:55:20;;;;;;;35.47;32.07;;;7.10;99.90;;;;;;5052324;28;20464;-67
2022/06/02 04:57:56;;;;;;;40.50;31.83;;;7.20;99.90;;;;;;5052025;28;20485;-67
2022/06/02 05:00:30;;;;;;;37.93;33.87;;;7.20;99.90;;;;;;5052140;28;20466;-68
2022/06/02 05:03:04;;;;;;;37.63;33.73;;;7.30;99.90;;;;;;5050762;28;20456;-68
2022/06/02 05:05:38;;;;;;;37.03;33.03;;;7.30;99.90;;;;;;5050196;28;20498;-67
2022/06/02 05:08:30;;;;;;;38.83;34.63;;;7.40;99.90;;;;;;5051767;28;20948;-68
2022/06/02 05:11:08;;;;;;;35.17;31.67;;;7.50;99.90;;;;;;5047470;28;20474;-68
2022/06/02 05:13:49;;;;;;;36.90;33.33;;;7.50;99.90;;;;;;5051495;28;20460;-68
2022/06/02 05:16:26;;;;;;;39.73;34.87;;;7.70;99.90;;;;;;5056492;28;20509;-68
2022/06/02 05:19:28;;;;;;;38.27;32.93;;;7.80;99.90;;;;;;5078676;28;20457;-68
2022/06/02 05:22:12;;;;;;;39.20;35.10;;;7.90;99.90;;;;;;5079374;28;20460;-68
2022/06/02 05:24:56;;;;;;;38.60;34.43;;;8.10;99.90;;;;;;5076878;28;20494;-67
2022/06/02 05:27:49;;;;;;;40.43;36.37;;;8.30;99.90;;;;;;5052164;28;21557;-68
2022/06/02 05:30:43;;;;;;;43.40;38.70;;;8.40;99.90;;;;;;5052179;28;20480;-66
2022/06/02 05:33:51;;;;;;;47.43;40.10;;;8.60;99.90;;;;;;5051831;28;20471;-68
2022/06/02 05:36:33;;;;;;;44.00;38.73;;;8.60;99.90;;;;;;5027051;28;20584;-68
2022/06/02 05:39:28;;;;;;;43.13;36.10;;;8.80;99.90;;;;;;5052074;28;21042;-67
2022/06/02 05:42:06;;;;;;;42.30;37.97;;;8.90;99.90;;;;;;5045738;28;20471;-68
2022/06/02 05:44:48;;;;;;;41.97;37.00;;;9.00;99.90;;;;;;5051708;28;20497;-67
2022/06/02 05:47:28;;;;;;;49.23;37.70;;;9.10;99.90;;;;;;5074714;28;20457;-66
2022/06/02 05:50:03;;;;;;;41.33;37.03;;;9.30;99.90;;;;;;5077148;28;20458;-66
2022/06/02 05:52:40;;;;;;;44.83;40.27;;;9.40;99.90;;;;;;5081559;28;20465;-67
2022/06/02 05:55:18;;;;;;;45.40;40.37;;;9.60;99.90;;;;;;5069149;28;20458;-67
2022/06/02 05:57:55;;;;;;;44.20;37.80;;;9.70;99.90;;;;;;5073471;28;20489;-67
2022/06/02 06:00:32;;;;;;;45.43;39.23;;;9.80;99.90;;;;;;5076647;28;20461;-67
2022/06/02 06:03:32;;;;;;;48.17;38.63;;;9.90;99.90;;;;;;5047146;28;20521;-68
2022/06/02 06:06:04;;;;;;;43.27;38.30;;;10.00;99.90;;;;;;5049921;28;20679;-67
2022/06/02 06:08:46;;;;;;;45.77;39.33;;;10.10;99.90;;;;;;5051251;28;20516;-67
2022/06/02 06:11:25;;;;;;;42.87;38.23;;;10.10;99.90;;;;;;5050690;28;20489;-68
2022/06/02 06:14:11;;;;;;;45.43;39.13;;;10.20;99.90;;;;;;5049889;28;20467;-67
2022/06/02 06:16:40;;;;;;;43.50;38.90;;;10.30;99.90;;;;;;5049713;28;20466;-68
2022/06/02 06:19:22;;;;;;;44.67;39.97;;;10.30;99.90;;;;;;5049547;28;20451;-67
2022/06/02 06:22:03;;;;;;;44.40;38.20;;;10.40;99.90;;;;;;5048293;28;20518;-68
2022/06/02 06:24:50;;;;;;;42.30;38.20;;;10.50;99.90;;;;;;5049482;28;20550;-67
2022/06/02 06:27:25;;;;;;;41.73;37.50;;;10.60;99.90;;;;;;5049458;28;20489;-68
2022/06/02 06:30:09;;;;;;;39.80;35.00;;;10.70;99.90;;;;;;5049583;28;20472;-67
2022/06/02 06:32:44;;;;;;;41.57;37.27;;;10.90;99.90;;;;;;5049340;28;20941;-66
2022/06/02 06:35:31;;;;;;;39.73;35.73;;;11.00;99.90;;;;;;5049599;28;21038;-66
2022/06/02 06:38:26;;;;;;;38.67;34.57;;;11.10;99.90;;;;;;5050426;28;20491;-67
2022/06/02 06:41:31;;;;;;;45.70;37.50;;;11.10;99.90;;;;;;5049507;28;23024;-65
2022/06/02 06:44:13;;;;;;;42.17;36.00;;;11.30;99.90;;;;;;5048403;28;20462;-67
2022/06/02 06:46:44;;;;;;;36.73;33.13;;;11.50;99.90;;;;;;5048017;28;20490;-66
2022/06/02 06:49:17;;;;;;;44.87;36.90;;;11.60;99.90;;;;;;5048503;28;21081;-68
2022/06/02 06:51:56;;;;;;;37.23;33.23;;;11.60;99.90;;;;;;5048604;28;21312;-66
2022/06/02 06:54:37;;;;;;;40.80;32.30;;;11.60;99.90;;;;;;5046436;28;20980;-66
2022/06/02 06:57:11;;;;;;;39.17;33.37;;;11.80;99.90;;;;;;5047280;28;20518;-67
2022/06/02 06:59:50;;;;;;;37.47;30.40;;;11.90;99.90;;;;;;5047463;28;20921;-66
2022/06/02 07:02:28;;;;;;;34.00;30.23;;;12.00;99.90;;;;;;5045627;28;20552;-67
2022/06/02 07:05:03;;;;;;;47.73;33.87;;;12.10;99.90;;;;;;5048083;28;20505;-67
2022/06/02 07:07:56;;;;;;;37.07;30.93;;;12.30;99.90;;;;;;5048735;28;20469;-66
2022/06/02 07:10:30;;;;;;;36.63;30.23;;;12.40;99.90;;;;;;5048784;28;20466;-67
2022/06/02 07:13:06;;;;;;;31.60;27.47;;;12.50;99.90;;;;;;5048698;28;20964;-67
2022/06/02 07:15:46;;;;;;;28.63;25.80;;;12.70;99.90;;;;;;5047656;28;20472;-67
2022/06/02 07:18:46;;;;;;;28.43;25.70;;;12.80;99.90;;;;;;5047968;28;20474;-67
2022/06/02 07:21:23;;;;;;;28.67;25.97;;;13.10;99.90;;;;;;5003773;28;20505;-68
2022/06/02 07:24:06;;;;;;;27.83;25.20;;;13.30;99.90;;;;;;5048179;28;20470;-67
2022/06/02 07:26:47;;;;;;;28.80;25.37;;;13.40;99.90;;;;;;5047073;28;20472;-68
2022/06/02 07:29:23;;;;;;;28.03;25.10;;;13.40;99.90;;;;;;5048321;28;20477;-66
2022/06/02 07:32:16;;;;;;;26.80;24.30;;;13.50;99.90;;;;;;5047985;28;20862;-68
2022/06/02 07:35:02;;;;;;;26.43;24.00;;;13.80;99.90;;;;;;5042554;28;20473;-67
2022/06/02 07:37:35;;;;;;;26.47;24.07;;;13.80;99.90;;;;;;5044565;28;21017;-67
2022/06/02 07:40:29;;;;;;;26.83;24.50;;;14.10;99.90;;;;;;5048148;28;20470;-67
2022/06/02 07:43:31;;;;;;;25.57;23.20;;;14.20;99.90;;;;;;5045608;28;20537;-67
2022/06/02 07:46:21;;;;;;;27.30;24.40;;;14.30;99.90;;;;;;5045539;28;20465;-67
2022/06/02 07:49:08;;;;;;;24.77;22.83;;;14.30;99.90;;;;;;5044455;28;21481;-67
2022/06/02 07:51:42;;;;;;;23.53;21.40;;;14.60;99.90;;;;;;5044075;28;21017;-68
2022/06/02 07:54:27;;;;;;;22.50;20.80;;;14.80;99.90;;;;;;5044863;28;20474;-67
2022/06/02 07:57:04;;;;;;;20.70;19.30;;;15.10;99.90;;;;;;5045842;28;20790;-68
2022/06/02 07:59:46;;;;;;;22.80;20.97;;;15.30;99.90;;;;;;5047024;28;20497;-68
2022/06/02 08:02:48;;;;;;;22.20;20.50;;;15.60;99.90;;;;;;5043689;28;20471;-69
2022/06/02 08:05:28;;;;;;;22.17;20.60;;;15.90;99.90;;;;;;5046774;28;20600;-68
2022/06/02 08:07:59;;;;;;;21.00;19.37;;;16.70;99.90;;;;;;5041642;28;20477;-67
2022/06/02 08:10:36;;;;;;;21.53;19.60;;;17.80;99.90;;;;;;5039065;28;20478;-68
2022/06/02 08:13:15;;;;;;;20.27;18.80;;;19.00;99.90;;;;;;5035918;28;20958;-69
2022/06/02 08:15:51;;;;;;;21.13;19.43;;;19.40;99.90;;;;;;5041487;28;20462;-69
2022/06/02 08:18:33;;;;;;;21.00;19.43;;;19.70;99.90;;;;;;5042083;28;20489;-70
2022/06/02 08:21:15;;;;;;;21.40;19.90;;;20.10;99.90;;;;;;5044221;28;20832;-70
2022/06/02 08:24:24;;;;;;;20.40;19.00;;;20.30;99.90;;;;;;5041588;28;21200;-70
2022/06/02 08:27:04;;;;;;;20.60;18.80;;;20.90;99.90;;;;;;4998263;28;21036;-68
2022/06/02 08:29:42;;;;;;;17.70;16.67;;;21.60;99.50;;;;;;5050693;28;20544;-68
2022/06/02 08:32:26;;;;;;;18.37;17.17;;;21.80;98.20;;;;;;5065836;28;20455;-67
2022/06/02 08:35:04;;;;;;;18.73;17.60;;;22.00;97.30;;;;;;5071628;28;20462;-67
2022/06/02 08:37:48;;;;;;;18.27;17.10;;;22.60;94.60;;;;;;5049211;28;20557;-68
2022/06/02 08:40:45;;;;;;;18.40;17.17;;;22.30;92.20;;;;;;5031814;28;20471;-68
2022/06/02 08:43:46;;;;;;;18.67;17.67;;;22.40;93.70;;;;;;5031687;28;20457;-71
2022/06/02 08:46:45;;;;;;;18.77;17.70;;;22.20;90.60;;;;;;5009563;28;20827;-70
2022/06/02 08:49:58;;;;;;;20.40;19.10;;;21.90;90.60;;;;;;5029069;28;20483;-68
2022/06/02 08:53:00;;;;;;;18.63;17.57;;;22.20;90.60;;;;;;4948970;28;21020;-68
2022/06/02 08:56:13;;;;;;;19.03;17.83;;;23.40;89.60;;;;;;5064789;28;20502;-66
2022/06/02 08:59:29;;;;;;;20.10;18.80;;;22.60;88.10;;;;;;5041188;28;20580;-68
2022/06/02 09:02:15;;;;;;;18.60;17.60;;;21.90;89.00;;;;;;5036620;28;21371;-66
2022/06/02 09:05:14;;;;;;;19.77;18.60;;;21.40;90.60;;;;;;5042115;28;20544;-67
2022/06/02 09:08:19;;;;;;;20.33;19.00;;;22.00;90.70;;;;;;5039846;28;20469;-67
2022/06/02 09:14:22;;;;;;;18.83;17.30;;;21.90;90.00;;;;;;5041976;28;20451;-67
2022/06/02 09:16:58;;;;;;;19.27;17.93;;;21.70;90.70;;;;;;5043058;28;20454;-67
2022/06/02 09:19:41;;;;;;;16.93;16.03;;;21.60;90.10;;;;;;5041804;28;20588;-67
2022/06/02 09:22:39;;;;;;;18.63;17.53;;;21.60;89.30;;;;;;5044387;28;22265;-67
2022/06/02 09:25:21;;;;;;;17.50;16.50;;;20.60;90.10;;;;;;5043174;28;20975;-66
2022/06/02 09:28:28;;;;;;;19.37;18.27;;;20.60;90.80;;;;;;5042941;28;20515;-67
2022/06/02 09:31:09;;;;;;;18.40;17.30;;;21.20;90.00;;;;;;5048158;28;21035;-66
2022/06/02 09:34:00;;;;;;;17.53;16.40;;;21.20;88.90;;;;;;5064124;28;20719;-66
2022/06/02 09:36:50;;;;;;;17.00;16.00;;;21.20;89.90;;;;;;5065004;28;20463;-68
2022/06/02 09:39:37;;;;;;;17.20;16.10;;;22.30;83.80;;;;;;5071906;28;20481;-66
2022/06/02 09:42:26;;;;;;;18.73;17.20;;;24.00;79.40;;;;;;5048666;28;20465;-68
2022/06/02 09:45:06;;;;;;;17.30;15.90;;;24.40;80.60;;;;;;5043330;28;21048;-68
2022/06/02 09:47:56;;;;;;;17.47;16.57;;;24.30;80.90;;;;;;5041285;28;20538;-67
2022/06/02 09:50:44;;;;;;;16.80;15.97;;;22.80;75.70;;;;;;5043701;28;20609;-67
2022/06/02 09:53:29;;;;;;;17.57;16.50;;;22.70;78.20;;;;;;5044112;28;21043;-67
2022/06/02 09:56:12;;;;;;;16.73;15.80;;;23.60;80.20;;;;;;5042163;28;20446;-68
2022/06/02 09:58:53;;;;;;;19.20;17.90;;;25.30;73.80;;;;;;5041809;28;20498;-66
2022/06/02 10:01:29;;;;;;;17.43;16.53;;;25.90;71.80;;;;;;5042355;28;20479;-67
2022/06/02 10:04:23;;;;;;;17.20;16.30;;;26.40;69.90;;;;;;5038860;28;21125;-69
2022/06/02 10:07:24;;;;;;;16.90;16.10;;;26.00;70.60;;;;;;5017560;28;20463;-67
2022/06/02 10:10:29;;;;;;;17.73;16.83;;;26.10;67.80;;;;;;5019507;28;21404;-69
2022/06/02 10:13:24;;;;;;;16.53;15.73;;;26.60;66.90;;;;;;5017425;28;20444;-70
2022/06/02 10:16:07;;;;;;;17.10;16.30;;;26.50;62.90;;;;;;5017755;28;20448;-67
2022/06/02 10:18:56;;;;;;;16.70;15.83;;;25.60;62.50;;;;;;5021506;28;20518;-69
2022/06/02 10:21:34;;;;;;;16.77;15.87;;;26.00;61.20;;;;;;5019361;28;20468;-68
2022/06/02 10:24:26;;;;;;;17.00;16.17;;;27.20;60.00;;;;;;5022173;28;20863;-70
2022/06/02 10:27:08;;;;;;;17.50;16.47;;;27.60;58.20;;;;;;5020994;28;20889;-70
2022/06/02 10:30:07;;;;;;;15.83;15.03;;;25.90;59.30;;;;;;5051748;28;20831;-68
2022/06/02 10:33:02;;;;;;;16.47;15.57;;;25.50;61.30;;;;;;5045019;28;20456;-67
2022/06/02 10:36:03;;;;;;;17.97;16.70;;;25.70;63.90;;;;;;5024435;28;20480;-68
2022/06/02 10:38:42;;;;;;;17.37;16.47;;;26.70;58.40;;;;;;5019450;28;20521;-70
2022/06/02 10:41:25;;;;;;;18.10;17.20;;;27.90;55.90;;;;;;5019902;28;20462;-68
2022/06/02 10:44:14;;;;;;;18.50;17.00;;;27.60;56.20;;;;;;5020309;28;20982;-67
2022/06/02 10:47:15;;;;;;;17.57;16.53;;;27.30;55.50;;;;;;5018243;28;21001;-67
2022/06/02 10:49:54;;;;;;;16.53;15.33;;;26.50;56.70;;;;;;5020950;28;20506;-67
2022/06/02 10:53:03;;;;;;;17.23;16.23;;;26.20;55.90;;;;;;5020761;28;22024;-67
2022/06/02 10:55:57;;;;;;;16.70;15.80;;;24.90;59.20;;;;;;5020181;28;20459;-67
2022/06/02 10:58:55;;;;;;;17.43;16.50;;;25.20;58.90;;;;;;5020711;28;20852;-67
2022/06/02 11:01:56;;;;;;;16.93;15.87;;;25.60;58.20;;;;;;5020187;28;21510;-68
2022/06/02 11:04:59;;;;;;;16.73;15.83;;;26.00;57.50;;;;;;5016606;28;20488;-66
2022/06/02 11:08:15;;;;;;;17.17;15.97;;;26.50;60.00;;;;;;5041770;28;20464;-68
2022/06/02 11:11:19;;;;;;;17.50;15.97;;;27.70;56.90;;;;;;5020020;28;20458;-68
2022/06/02 11:14:19;;;;;;;17.50;16.50;;;28.20;53.70;;;;;;5019831;28;20498;-67
2022/06/02 11:17:25;;;;;;;16.80;16.00;;;28.20;52.30;;;;;;5018867;28;20467;-67
2022/06/02 11:20:21;;;;;;;16.23;15.20;;;27.50;52.00;;;;;;5018149;28;20502;-69
2022/06/02 11:23:15;;;;;;;15.93;15.00;;;27.80;52.40;;;;;;5017065;28;20468;-67
2022/06/02 11:26:06;;;;;;;17.30;16.30;;;27.60;51.20;;;;;;5015483;28;20462;-67
2022/06/02 11:29:15;;;;;;;16.53;15.53;;;27.80;52.40;;;;;;5013986;28;21199;-68
2022/06/02 11:32:22;;;;;;;17.13;15.80;;;28.50;49.60;;;;;;5017015;28;20471;-68
2022/06/02 11:35:24;;;;;;;16.37;15.57;;;28.30;50.50;;;;;;4939839;28;20478;-68
2022/06/02 11:38:15;;;;;;;15.80;15.07;;;28.00;49.30;;;;;;4937404;28;20933;-70
2022/06/02 11:40:56;;;;;;;16.50;15.70;;;29.10;49.10;;;;;;4962611;28;20527;-69
2022/06/02 11:43:31;;;;;;;17.17;16.30;;;29.00;48.00;;;;;;5018081;28;20455;-68
2022/06/02 11:46:32;;;;;;;16.40;15.60;;;27.60;49.00;;;;;;5015096;28;20494;-69
2022/06/02 11:49:27;;;;;;;17.13;16.00;;;29.10;50.90;;;;;;5016276;28;20464;-68
2022/06/02 11:52:20;;;;;;;16.27;15.47;;;29.80;49.10;;;;;;5015972;28;20458;-69
2022/06/02 11:55:08;;;;;;;16.53;15.63;;;29.00;47.30;;;;;;5015915;28;20599;-69
2022/06/02 11:57:49;;;;;;;16.93;16.03;;;29.70;48.30;;;;;;5013074;28;20715;-69
2022/06/02 12:00:46;;;;;;;17.83;16.83;;;29.10;48.10;;;;;;5018904;28;20495;-69
2022/06/02 12:03:44;;;;;;;16.87;16.07;;;29.70;47.30;;;;;;5019728;28;20466;-69
2022/06/02 12:06:46;;;;;;;17.77;16.67;;;28.70;48.10;;;;;;5020884;28;20464;-70
2022/06/02 12:09:35;;;;;;;17.07;15.90;;;29.30;47.00;;;;;;5019990;28;20458;-70
2022/06/02 12:12:23;;;;;;;18.17;17.07;;;29.10;46.60;;;;;;5020859;28;20499;-70
2022/06/02 12:15:38;;;;;;;16.80;16.00;;;29.60;44.70;;;;;;5023525;28;20741;-69
2022/06/02 12:18:16;;;;;;;18.03;16.60;;;30.40;44.60;;;;;;5021671;28;20463;-71
2022/06/02 12:21:06;;;;;;;17.57;16.37;;;29.80;44.60;;;;;;5023622;28;20502;-69
2022/06/02 12:23:48;;;;;;;16.33;15.43;;;29.40;44.50;;;;;;5020499;28;20851;-68
2022/06/02 12:26:27;;;;;;;18.27;16.77;;;29.70;44.30;;;;;;5023690;28;20462;-71
2022/06/02 12:29:04;;;;;;;17.33;16.37;;;30.10;44.10;;;;;;5020975;28;20474;-69
2022/06/02 12:32:05;;;;;;;18.03;16.80;;;29.50;44.30;;;;;;5020536;28;20585;-71
2022/06/02 12:35:08;;;;;;;17.50;16.50;;;29.90;44.70;;;;;;5015764;28;20468;-68
2022/06/02 12:37:55;;;;;;;17.03;16.03;;;30.10;43.20;;;;;;5023073;28;20962;-68
2022/06/02 12:40:31;;;;;;;17.80;16.80;;;30.90;42.40;;;;;;5022384;28;20478;-68
2022/06/02 12:43:41;;;;;;;18.50;17.30;;;30.80;42.00;;;;;;5023869;28;20459;-67
2022/06/02 12:46:32;;;;;;;18.07;17.17;;;29.20;42.90;;;;;;4994974;28;21969;-67
2022/06/02 12:49:23;;;;;;;18.40;17.20;;;27.80;44.00;;;;;;5021431;28;20544;-68
2022/06/02 12:51:59;;;;;;;17.50;16.50;;;29.40;42.90;;;;;;5022694;28;21122;-70
2022/06/02 12:55:18;;;;;;;17.07;16.17;;;28.40;44.80;;;;;;5022508;28;20463;-67
2022/06/02 12:58:14;;;;;;;16.47;15.67;;;28.80;45.20;;;;;;4990346;28;20472;-68
2022/06/02 13:01:09;;;;;;;17.13;16.20;;;28.90;44.10;;;;;;5022421;28;20907;-68
2022/06/02 13:04:20;;;;;;;17.20;16.30;;;29.30;45.10;;;;;;5022230;28;20655;-67
2022/06/02 13:07:23;;;;;;;16.90;15.97;;;30.50;43.50;;;;;;5011425;28;20463;-67
2022/06/02 13:10:19;;;;;;;20.00;18.03;;;31.10;42.50;;;;;;5007187;28;20784;-67
2022/06/02 13:13:21;;;;;;;17.20;16.10;;;30.70;40.90;;;;;;5010403;28;20858;-67
2022/06/02 13:16:34;;;;;;;16.80;15.70;;;30.90;41.10;;;;;;5011260;28;20468;-68
2022/06/02 13:19:30;;;;;;;16.13;15.33;;;31.10;40.30;;;;;;5010669;28;20495;-67
2022/06/02 13:22:24;;;;;;;15.53;14.83;;;32.10;39.00;;;;;;5004528;28;20467;-69
2022/06/02 13:25:21;;;;;;;16.27;15.47;;;32.10;40.90;;;;;;5009273;28;20471;-67
2022/06/02 13:28:36;;;;;;;16.80;16.00;;;31.70;38.00;;;;;;4996531;28;20469;-67
2022/06/02 13:31:30;;;;;;;16.27;15.40;;;32.70;38.10;;;;;;4961868;28;20476;-66
2022/06/02 13:34:33;;;;;;;16.27;15.47;;;33.20;37.40;;;;;;5009259;28;20463;-66
2022/06/02 13:37:23;;;;;;;15.97;15.17;;;32.10;36.60;;;;;;5010938;28;20553;-67
2022/06/02 13:40:18;;;;;;;16.60;15.80;;;32.20;36.50;;;;;;5010417;28;20468;-68
2022/06/02 13:43:24;;;;;;;17.07;16.20;;;33.00;35.80;;;;;;5009743;28;20475;-68
2022/06/02 13:46:19;;;;;;;18.07;17.10;;;33.40;36.10;;;;;;5009231;28;20467;-67
2022/06/02 13:49:34;;;;;;;16.33;15.53;;;31.70;36.50;;;;;;5009772;28;20471;-66
2022/06/02 13:52:48;;;;;;;16.63;15.73;;;31.00;37.80;;;;;;4975135;28;20590;-67
2022/06/02 13:59:01;;;;;;;17.23;16.23;;;30.20;40.40;;;;;;5009611;28;20466;-67
2022/06/02 14:01:48;;;;;;;16.63;15.83;;;31.40;38.00;;;;;;5010004;28;20499;-66
2022/06/02 14:04:38;;;;;;;16.87;15.97;;;31.10;37.40;;;;;;5019430;28;20489;-67
2022/06/02 14:07:25;;;;;;;16.20;15.40;;;31.50;37.20;;;;;;5039015;28;20475;-68
2022/06/02 14:10:06;;;;;;;16.20;15.40;;;31.70;38.00;;;;;;5036751;28;20485;-65
2022/06/02 14:12:53;;;;;;;16.13;15.33;;;31.70;36.50;;;;;;5035044;28;20907;-65
2022/06/02 14:15:35;;;;;;;16.47;15.47;;;31.50;36.90;;;;;;5038242;28;20936;-68